createdAt,value
2023-02-18T00:02:23.258Z,18.38
2023-02-18T00:04:49.935Z,18.38
2023-02-18T00:07:16.333Z,18.38
2023-02-18T00:09:42.746Z,18.37
2023-02-18T00:12:09.437Z,18.35
2023-02-18T00:14:36.366Z,18.35
2023-02-18T00:17:02.769Z,18.33
2023-02-18T00:19:29.144Z,18.33
2023-02-18T00:21:55.525Z,18.33
2023-02-18T00:24:21.953Z,18.32
2023-02-18T00:26:48.386Z,18.30
2023-02-18T00:29:14.966Z,18.30
2023-02-18T00:31:41.575Z,18.29
2023-02-18T00:34:08.221Z,18.29
2023-02-18T00:36:34.753Z,18.28
2023-02-18T00:39:03.039Z,18.26
2023-02-18T00:41:29.427Z,18.25
2023-02-18T00:43:55.950Z,18.25
2023-02-18T00:46:22.270Z,18.23
2023-02-18T00:48:48.762Z,18.22
2023-02-18T00:51:15.080Z,18.22
2023-02-18T00:53:41.331Z,18.22
2023-02-18T00:56:08.050Z,18.21
2023-02-18T00:58:34.577Z,18.20
2023-02-18T01:01:00.947Z,18.18
2023-02-18T01:03:27.331Z,18.19
2023-02-18T01:05:53.832Z,18.17
2023-02-18T01:08:21.344Z,18.17
2023-02-18T01:10:47.759Z,18.17
2023-02-18T01:13:14.330Z,18.16
2023-02-18T01:15:40.973Z,18.15
2023-02-18T01:18:07.294Z,18.14
2023-02-18T01:20:33.876Z,18.14
2023-02-18T01:23:03.374Z,18.13
2023-02-18T01:25:29.662Z,18.11
2023-02-18T01:27:56.067Z,18.11
2023-02-18T01:30:22.526Z,18.10
2023-02-18T01:32:48.819Z,18.09
2023-02-18T01:35:15.478Z,18.09
2023-02-18T01:37:42.202Z,18.08
2023-02-18T01:40:09.156Z,18.07
2023-02-18T01:42:36.134Z,18.08
2023-02-18T01:45:02.572Z,18.07
2023-02-18T01:47:29.739Z,18.06
2023-02-18T01:49:56.310Z,18.07
2023-02-18T01:52:22.745Z,18.06
2023-02-18T01:54:49.096Z,18.05
2023-02-18T01:57:15.540Z,18.04
2023-02-18T01:59:41.962Z,18.03
2023-02-18T02:02:08.293Z,18.02
2023-02-18T02:04:34.640Z,18.02
2023-02-18T02:07:01.034Z,18.02
2023-02-18T02:09:27.314Z,18.00
2023-02-18T02:11:54.172Z,17.99
2023-02-18T02:14:20.455Z,18.01
2023-02-18T02:16:46.823Z,17.98
2023-02-18T02:19:13.298Z,17.98
2023-02-18T02:21:39.614Z,17.98
2023-02-18T02:24:05.887Z,17.97
2023-02-18T02:26:32.317Z,17.97
2023-02-18T02:28:59.382Z,17.98
2023-02-18T02:31:26.072Z,17.96
2023-02-18T02:36:44.488Z,17.95
2023-02-18T02:39:11.353Z,17.94
2023-02-18T02:41:38.064Z,17.95
2023-02-18T02:44:04.544Z,17.94
2023-02-18T02:46:30.866Z,17.93
2023-02-18T02:48:57.890Z,17.93
2023-02-18T02:51:24.176Z,17.93
2023-02-18T02:53:50.411Z,17.92
2023-02-18T02:56:16.817Z,17.92
2023-02-18T02:58:43.096Z,17.91
2023-02-18T03:01:09.665Z,17.91
2023-02-18T03:03:36.073Z,17.84
2023-02-18T03:08:55.820Z,17.89
2023-02-18T03:11:22.133Z,17.88
2023-02-18T03:13:48.569Z,17.89
2023-02-18T03:16:15.563Z,17.88
2023-02-18T03:18:41.887Z,17.88
2023-02-18T03:21:08.214Z,17.88
2023-02-18T03:23:34.550Z,17.87
2023-02-18T03:26:00.965Z,17.87
2023-02-18T03:28:27.499Z,17.87
2023-02-18T03:30:53.768Z,17.87
2023-02-18T03:33:20.181Z,17.86
2023-02-18T03:35:46.473Z,17.86
2023-02-18T03:38:13.561Z,17.85
2023-02-18T03:40:39.814Z,17.84
2023-02-18T03:43:06.084Z,17.85
2023-02-18T03:45:32.415Z,17.83
2023-02-18T03:47:59.439Z,17.83
2023-02-18T03:50:26.138Z,17.83
2023-02-18T03:52:52.444Z,17.84
2023-02-18T03:55:18.913Z,17.83
2023-02-18T03:57:45.230Z,17.84
2023-02-18T04:00:11.649Z,17.82
2023-02-18T04:02:38.008Z,17.82
2023-02-18T04:05:04.773Z,17.82
2023-02-18T04:07:31.213Z,17.82
2023-02-18T04:09:57.647Z,17.82
2023-02-18T04:12:24.398Z,17.81
2023-02-18T04:14:51.920Z,17.80
2023-02-18T04:17:18.337Z,17.80
2023-02-18T04:19:44.620Z,17.79
2023-02-18T04:22:10.918Z,17.79
2023-02-18T04:24:37.475Z,17.80
2023-02-18T04:27:03.761Z,17.79
2023-02-18T04:29:32.515Z,17.78
2023-02-18T04:31:59.112Z,17.79
2023-02-18T04:34:25.420Z,17.78
2023-02-18T04:36:51.726Z,17.77
2023-02-18T04:39:18.052Z,17.78
2023-02-18T04:41:44.320Z,17.77
2023-02-18T04:44:11.003Z,17.78
2023-02-18T04:46:37.328Z,17.78
2023-02-18T04:49:03.845Z,17.79
2023-02-18T04:51:30.360Z,17.80
2023-02-18T04:53:56.735Z,17.82
2023-02-18T04:56:22.996Z,17.83
2023-02-18T04:58:49.334Z,17.84
2023-02-18T05:01:15.631Z,17.85
2023-02-18T05:03:42.259Z,17.87
2023-02-18T05:06:08.958Z,17.88
2023-02-18T05:08:35.582Z,17.89
2023-02-18T05:11:01.962Z,17.92
2023-02-18T05:13:28.257Z,17.93
2023-02-18T05:15:55.700Z,17.94
2023-02-18T05:21:07.588Z,17.97
2023-02-18T05:23:34.329Z,17.99
2023-02-18T05:26:04.631Z,18.01
2023-02-18T05:28:31.606Z,18.03
2023-02-18T05:30:58.358Z,18.05
2023-02-18T05:33:25.262Z,18.06
2023-02-18T05:35:57.279Z,18.08
2023-02-18T05:38:23.535Z,18.11
2023-02-18T05:40:50.389Z,18.12
2023-02-18T05:43:16.695Z,18.14
2023-02-18T05:45:43.261Z,18.17
2023-02-18T05:48:09.608Z,18.19
2023-02-18T05:50:36.511Z,18.22
2023-02-18T05:53:03.543Z,18.25
2023-02-18T05:55:29.839Z,18.28
2023-02-18T05:57:56.612Z,18.30
2023-02-18T06:00:23.399Z,18.33
2023-02-18T06:02:49.843Z,18.36
2023-02-18T06:05:16.547Z,18.39
2023-02-18T06:07:42.922Z,18.40
2023-02-18T06:10:10.619Z,18.42
2023-02-18T06:12:37.177Z,18.45
2023-02-18T06:15:03.860Z,18.46
2023-02-18T06:17:30.350Z,18.47
2023-02-18T06:19:56.719Z,18.50
2023-02-18T06:22:22.980Z,18.53
2023-02-18T06:24:49.328Z,18.56
2023-02-18T06:27:16.537Z,18.57
2023-02-18T06:29:43.574Z,18.60
2023-02-18T06:32:10.114Z,18.61
2023-02-18T06:34:36.817Z,18.63
2023-02-18T06:37:03.726Z,18.64
2023-02-18T06:39:30.108Z,18.63
2023-02-18T06:41:57.764Z,18.66
2023-02-18T06:44:24.158Z,18.65
2023-02-18T06:46:50.808Z,18.66
2023-02-18T06:49:17.950Z,18.65
2023-02-18T06:51:44.269Z,18.65
2023-02-18T06:54:10.836Z,18.66
2023-02-18T06:56:37.869Z,18.66
2023-02-18T06:59:04.194Z,18.64
2023-02-18T07:01:30.462Z,18.64
2023-02-18T07:03:56.753Z,18.64
2023-02-18T07:06:23.174Z,18.64
2023-02-18T07:08:49.492Z,18.64
2023-02-18T07:11:16.281Z,18.64
2023-02-18T07:13:42.576Z,18.63
2023-02-18T07:16:09.533Z,18.65
2023-02-18T07:18:36.320Z,18.67
2023-02-18T07:21:03.100Z,18.67
2023-02-18T07:23:29.468Z,18.68
2023-02-18T07:25:55.785Z,18.70
2023-02-18T07:28:22.044Z,18.71
2023-02-18T07:30:48.579Z,18.72
2023-02-18T07:33:14.879Z,18.74
2023-02-18T07:35:41.354Z,18.75
2023-02-18T07:38:08.605Z,18.76
2023-02-18T07:40:35.395Z,18.78
2023-02-18T07:43:01.727Z,18.80
2023-02-18T07:45:28.440Z,18.81
2023-02-18T07:47:54.820Z,18.82
2023-02-18T07:50:21.118Z,18.83
2023-02-18T07:52:47.678Z,18.86
2023-02-18T07:55:14.589Z,18.87
2023-02-18T07:57:41.541Z,18.88
2023-02-18T08:00:08.813Z,18.89
2023-02-18T08:02:38.377Z,18.91
2023-02-18T08:05:05.506Z,18.92
2023-02-18T08:07:32.192Z,18.92
2023-02-18T08:09:58.498Z,18.92
2023-02-18T08:12:24.872Z,18.91
2023-02-18T08:14:51.130Z,18.91
2023-02-18T08:17:18.571Z,18.91
2023-02-18T08:19:44.804Z,18.90
2023-02-18T08:22:11.065Z,18.89
2023-02-18T08:24:37.367Z,18.89
2023-02-18T08:27:03.774Z,18.90
2023-02-18T08:29:30.228Z,18.88
2023-02-18T08:31:56.543Z,18.87
2023-02-18T08:34:23.004Z,18.87
2023-02-18T08:36:49.832Z,18.86
2023-02-18T08:39:16.306Z,18.87
2023-02-18T08:41:42.791Z,18.86
2023-02-18T08:44:09.117Z,18.85
2023-02-18T08:46:36.516Z,18.84
2023-02-18T08:49:03.537Z,18.83
2023-02-18T08:51:29.824Z,18.84
2023-02-18T08:53:56.111Z,18.85
2023-02-18T08:56:22.345Z,18.84
2023-02-18T08:58:48.754Z,18.84
2023-02-18T09:01:15.362Z,18.83
2023-02-18T09:03:41.705Z,18.82
2023-02-18T09:06:08.553Z,18.81
2023-02-18T09:08:34.929Z,18.81
2023-02-18T09:11:01.480Z,18.80
2023-02-18T09:13:28.644Z,18.80
2023-02-18T09:15:54.961Z,18.79
2023-02-18T09:18:21.368Z,18.79
2023-02-18T09:23:34.541Z,18.76
2023-02-18T09:26:01.262Z,18.75
2023-02-18T09:28:27.543Z,18.75
2023-02-18T09:30:54.008Z,18.76
2023-02-18T09:33:20.624Z,18.75
2023-02-18T09:35:46.907Z,18.74
2023-02-18T09:38:13.477Z,18.75
2023-02-18T09:40:39.773Z,18.74
2023-02-18T09:43:08.449Z,18.76
2023-02-18T09:45:34.817Z,18.77
2023-02-18T09:48:01.118Z,18.78
2023-02-18T09:50:27.984Z,18.78
2023-02-18T09:52:54.530Z,18.79
2023-02-18T09:55:22.861Z,18.78
2023-02-18T09:57:49.093Z,18.78
2023-02-18T10:00:15.346Z,18.78
2023-02-18T10:02:41.686Z,18.78
2023-02-18T10:05:08.294Z,18.80
2023-02-18T10:07:34.651Z,18.81
2023-02-18T10:10:00.952Z,18.84
2023-02-18T10:12:27.292Z,18.85
2023-02-18T10:14:56.868Z,18.87
2023-02-18T10:17:23.257Z,18.86
2023-02-18T10:19:49.552Z,18.85
2023-02-18T10:22:15.904Z,18.86
2023-02-18T10:24:42.236Z,18.86
2023-02-18T10:27:08.552Z,18.87
2023-02-18T10:29:37.988Z,18.88
2023-02-18T10:32:04.559Z,18.88
2023-02-18T10:34:31.548Z,18.90
2023-02-18T10:36:57.868Z,18.92
2023-02-18T10:39:26.918Z,18.93
2023-02-18T10:41:53.602Z,18.94
2023-02-18T10:44:20.131Z,18.96
2023-02-18T10:46:46.464Z,18.96
2023-02-18T10:49:13.336Z,18.96
2023-02-18T10:51:43.092Z,18.97
2023-02-18T10:54:09.342Z,18.99
2023-02-18T10:56:35.755Z,18.97
2023-02-18T10:59:02.232Z,18.96
2023-02-18T11:01:28.647Z,18.94
2023-02-18T11:03:55.106Z,18.93
2023-02-18T11:06:21.545Z,18.91
2023-02-18T11:08:49.227Z,18.90
2023-02-18T11:11:15.994Z,18.91
2023-02-18T11:13:42.417Z,18.92
2023-02-18T11:16:08.898Z,18.91
2023-02-18T11:18:39.214Z,18.92
2023-02-18T11:21:06.180Z,18.93
2023-02-18T11:23:33.601Z,18.95
2023-02-18T11:25:59.896Z,18.97
2023-02-18T11:28:26.420Z,18.98
2023-02-18T11:30:52.928Z,18.99
2023-02-18T11:33:19.253Z,18.97
2023-02-18T11:35:45.562Z,18.98
2023-02-18T11:38:12.090Z,18.98
2023-02-18T11:40:38.669Z,18.99
2023-02-18T11:43:05.014Z,19.01
2023-02-18T11:45:34.719Z,19.01
2023-02-18T11:48:00.992Z,19.03
2023-02-18T11:50:27.274Z,19.02
2023-02-18T11:52:53.615Z,19.00
2023-02-18T11:55:22.232Z,19.01
2023-02-18T11:57:48.707Z,19.03
2023-02-18T12:00:15.294Z,19.04
2023-02-18T12:02:41.667Z,19.02
2023-02-18T12:05:08.152Z,19.03
2023-02-18T12:07:35.036Z,19.02
2023-02-18T12:10:01.480Z,19.02
2023-02-18T12:12:28.747Z,19.00
2023-02-18T12:14:55.108Z,18.98
2023-02-18T12:17:23.572Z,18.97
2023-02-18T12:19:50.957Z,18.96
2023-02-18T12:22:17.289Z,18.95
2023-02-18T12:24:43.685Z,18.94
2023-02-18T12:27:10.897Z,18.94
2023-02-18T12:29:37.240Z,18.92
2023-02-18T12:32:03.593Z,18.90
2023-02-18T12:37:13.785Z,18.89
2023-02-18T12:39:40.985Z,18.89
2023-02-18T12:42:07.302Z,18.86
2023-02-18T12:44:34.359Z,18.87
2023-02-18T12:47:01.051Z,18.85
2023-02-18T12:49:27.561Z,18.84
2023-02-18T12:51:54.139Z,18.85
2023-02-18T12:54:20.955Z,18.84
2023-02-18T12:56:47.276Z,18.84
2023-02-18T12:59:13.537Z,18.83
2023-02-18T13:01:39.802Z,18.82
2023-02-18T13:04:06.113Z,18.81
2023-02-18T13:06:32.392Z,18.81
2023-02-18T13:08:58.855Z,18.81
2023-02-18T13:11:25.295Z,18.81
2023-02-18T13:13:51.643Z,18.80
2023-02-18T13:16:18.659Z,18.80
2023-02-18T13:18:44.959Z,18.78
2023-02-18T13:21:11.452Z,18.77
2023-02-18T13:23:37.891Z,18.77
2023-02-18T13:26:04.156Z,18.76
2023-02-18T13:28:30.469Z,18.75
2023-02-18T13:30:57.027Z,18.74
2023-02-18T13:33:23.684Z,18.73
2023-02-18T13:35:50.004Z,18.72
2023-02-18T13:38:17.390Z,18.71
2023-02-18T13:40:43.875Z,18.71
2023-02-18T13:43:10.389Z,18.70
2023-02-18T13:45:36.661Z,18.69
2023-02-18T13:48:03.570Z,18.69
2023-02-18T13:50:29.994Z,18.68
2023-02-18T13:52:56.496Z,18.67
2023-02-18T13:55:22.998Z,18.67
2023-02-18T13:57:49.404Z,18.67
2023-02-18T14:00:15.661Z,18.66
2023-02-18T14:02:42.038Z,18.64
2023-02-18T14:05:08.636Z,18.64
2023-02-18T14:07:34.980Z,18.64
2023-02-18T14:10:01.272Z,18.64
2023-02-18T14:12:27.528Z,18.63
2023-02-18T14:14:53.799Z,18.62
2023-02-18T14:17:20.944Z,18.61
2023-02-18T14:19:47.302Z,18.60
2023-02-18T14:22:13.787Z,18.58
2023-02-18T14:24:41.694Z,18.58
2023-02-18T14:27:08.526Z,18.57
2023-02-18T14:29:35.026Z,18.57
2023-02-18T14:32:01.395Z,18.57
2023-02-18T14:34:27.911Z,18.57
2023-02-18T14:36:54.173Z,18.55
2023-02-18T14:39:20.555Z,18.57
2023-02-18T14:41:46.867Z,18.56
2023-02-18T14:44:13.494Z,18.56
2023-02-18T14:46:40.102Z,18.56
2023-02-18T14:49:06.651Z,18.57
2023-02-18T14:51:33.539Z,18.57
2023-02-18T14:54:02.780Z,18.56
2023-02-18T14:56:29.771Z,18.55
2023-02-18T14:58:56.039Z,18.54
2023-02-18T15:01:22.299Z,18.54
2023-02-18T15:03:48.639Z,18.54
2023-02-18T15:06:15.161Z,18.54
2023-02-18T15:08:42.561Z,18.54
2023-02-18T15:11:09.003Z,18.53
2023-02-18T15:13:35.610Z,18.53
2023-02-18T15:16:01.876Z,18.53
2023-02-18T15:21:18.308Z,18.52
2023-02-18T15:23:44.606Z,18.50
2023-02-18T15:26:11.515Z,18.50
2023-02-18T15:28:38.539Z,18.49
2023-02-18T15:31:04.901Z,18.49
2023-02-18T15:33:32.082Z,18.48
2023-02-18T15:35:58.604Z,18.47
2023-02-18T15:38:25.518Z,18.46
2023-02-18T15:40:52.049Z,18.46
2023-02-18T15:43:18.554Z,18.45
2023-02-18T15:45:44.970Z,18.44
2023-02-18T15:48:12.390Z,18.43
2023-02-18T15:50:38.686Z,18.42
2023-02-18T15:53:05.058Z,18.41
2023-02-18T15:55:31.471Z,18.41
2023-02-18T15:57:58.411Z,18.42
2023-02-18T16:00:24.877Z,18.42
2023-02-18T16:02:51.458Z,18.44
2023-02-18T16:05:18.535Z,18.44
2023-02-18T16:07:44.802Z,18.46
2023-02-18T16:10:11.220Z,18.48
2023-02-18T16:12:37.769Z,18.50
2023-02-18T16:15:04.109Z,18.53
2023-02-18T16:17:31.234Z,18.53
2023-02-18T16:20:04.907Z,18.56
2023-02-18T16:22:31.805Z,18.58
2023-02-18T16:24:58.440Z,18.59
2023-02-18T16:27:24.733Z,18.62
2023-02-18T16:29:51.046Z,18.62
2023-02-18T16:32:17.503Z,18.64
2023-02-18T16:34:43.911Z,18.64
2023-02-18T16:37:10.448Z,18.66
2023-02-18T16:39:36.790Z,18.67
2023-02-18T16:42:04.270Z,18.67
2023-02-18T16:44:30.701Z,18.68
2023-02-18T16:46:57.115Z,18.69
2023-02-18T16:52:08.501Z,18.71
2023-02-18T16:54:35.255Z,18.71
2023-02-18T16:57:01.678Z,18.70
2023-02-18T16:59:27.968Z,18.71
2023-02-18T17:01:54.883Z,18.71
2023-02-18T17:04:21.349Z,18.71
2023-02-18T17:06:48.438Z,18.71
2023-02-18T17:09:15.123Z,18.71
2023-02-18T17:11:41.523Z,18.72
2023-02-18T17:14:08.269Z,18.73
2023-02-18T17:16:34.690Z,18.72
2023-02-18T17:19:00.980Z,18.74
2023-02-18T17:21:27.353Z,18.73
2023-02-18T17:23:54.257Z,18.74
2023-02-18T17:26:20.814Z,18.74
2023-02-18T17:28:47.218Z,18.75
2023-02-18T17:31:13.602Z,18.76
2023-02-18T17:33:39.945Z,18.78
2023-02-18T17:36:06.276Z,18.78
2023-02-18T17:38:32.629Z,18.78
2023-02-18T17:40:58.891Z,18.78
2023-02-18T17:43:25.253Z,18.79
2023-02-18T17:45:51.708Z,18.80
2023-02-18T17:48:18.396Z,18.82
2023-02-18T17:50:45.196Z,18.83
2023-02-18T17:53:11.502Z,18.83
2023-02-18T17:55:37.956Z,18.84
2023-02-18T17:58:04.423Z,18.84
2023-02-18T18:00:30.712Z,18.84
2023-02-18T18:02:57.042Z,18.86
2023-02-18T18:05:23.322Z,18.86
2023-02-18T18:07:49.683Z,18.87
2023-02-18T18:10:16.027Z,18.86
2023-02-18T18:12:42.502Z,18.86
2023-02-18T18:15:08.752Z,18.86
2023-02-18T18:17:35.930Z,18.85
2023-02-18T18:20:02.361Z,18.85
2023-02-18T18:22:28.731Z,18.84
2023-02-18T18:24:55.062Z,18.83
2023-02-18T18:27:21.651Z,18.82
2023-02-18T18:29:47.963Z,18.83
2023-02-18T18:32:14.236Z,18.82
2023-02-18T18:34:40.463Z,18.81
2023-02-18T18:37:06.771Z,18.80
2023-02-18T18:39:33.056Z,18.80
2023-02-18T18:41:59.462Z,18.79
2023-02-18T18:44:26.060Z,18.78
2023-02-18T18:46:52.322Z,18.78
2023-02-18T18:49:19.823Z,18.77
2023-02-18T18:51:46.215Z,18.78
2023-02-18T18:54:12.537Z,18.79
2023-02-18T18:56:39.044Z,18.80
2023-02-18T18:59:05.855Z,18.81
2023-02-18T19:01:32.292Z,18.81
2023-02-18T19:03:58.885Z,18.81
2023-02-18T19:06:25.573Z,18.83
2023-02-18T19:08:53.285Z,18.81
2023-02-18T19:11:22.129Z,18.83
2023-02-18T19:13:48.485Z,18.82
2023-02-18T19:16:14.927Z,18.82
2023-02-18T19:18:41.836Z,18.83
2023-02-18T19:21:08.795Z,18.83
2023-02-18T19:23:35.335Z,18.83
2023-02-18T19:26:01.628Z,18.84
2023-02-18T19:28:27.936Z,18.84
2023-02-18T19:30:54.596Z,18.83
2023-02-18T19:33:21.466Z,18.84
2023-02-18T19:35:47.737Z,18.83
2023-02-18T19:38:14.196Z,18.83
2023-02-18T19:40:40.958Z,18.82
2023-02-18T19:43:08.061Z,18.82
2023-02-18T19:45:34.796Z,18.81
2023-02-18T19:48:01.092Z,18.81
2023-02-18T19:50:27.402Z,18.80
2023-02-18T19:52:53.859Z,18.80
2023-02-18T19:55:20.154Z,18.80
2023-02-18T19:57:46.471Z,18.79
2023-02-18T20:00:12.764Z,18.78
2023-02-18T20:02:40.143Z,18.77
2023-02-18T20:05:06.588Z,18.77
2023-02-18T20:07:33.080Z,18.77
2023-02-18T20:09:59.427Z,18.78
2023-02-18T20:12:25.743Z,18.79
2023-02-18T20:14:52.962Z,18.79
2023-02-18T20:17:19.294Z,18.80
2023-02-18T20:19:45.919Z,18.82
2023-02-18T20:22:13.163Z,18.82
2023-02-18T20:24:39.402Z,18.83
2023-02-18T20:27:05.842Z,18.84
2023-02-18T20:29:33.244Z,18.84
2023-02-18T20:32:00.566Z,18.85
2023-02-18T20:34:26.898Z,18.86
2023-02-18T20:36:53.653Z,18.87
2023-02-18T20:39:19.951Z,18.87
2023-02-18T20:41:46.489Z,18.87
2023-02-18T20:44:12.869Z,18.86
2023-02-18T20:46:39.319Z,18.86
2023-02-18T20:49:06.723Z,18.86
2023-02-18T20:51:34.109Z,18.85
2023-02-18T20:54:01.251Z,18.85
2023-02-18T20:56:27.700Z,18.83
2023-02-18T20:58:54.038Z,18.84
2023-02-18T21:01:20.584Z,18.83
2023-02-18T21:03:47.784Z,18.82
2023-02-18T21:06:14.503Z,18.82
2023-02-18T21:08:40.916Z,18.80
2023-02-18T21:11:07.617Z,18.80
2023-02-18T21:13:34.585Z,18.79
2023-02-18T21:16:00.895Z,18.78
2023-02-18T21:18:27.219Z,18.77
2023-02-18T21:20:53.659Z,18.77
2023-02-18T21:23:20.124Z,18.75
2023-02-18T21:25:46.525Z,18.75
2023-02-18T21:28:13.135Z,18.74
2023-02-18T21:30:39.401Z,18.74
2023-02-18T21:33:05.818Z,18.73
2023-02-18T21:35:33.240Z,18.73
2023-02-18T21:37:59.559Z,18.72
2023-02-18T21:40:25.940Z,18.71
2023-02-18T21:42:52.353Z,18.72
2023-02-18T21:45:18.795Z,18.71
2023-02-18T21:47:45.781Z,18.72
2023-02-18T21:50:14.048Z,18.72
2023-02-18T21:52:42.837Z,18.71
2023-02-18T21:55:09.112Z,18.72
2023-02-18T21:57:35.369Z,18.72
2023-02-18T22:00:14.690Z,18.71
2023-02-18T22:02:49.099Z,18.70
2023-02-18T22:05:16.129Z,18.71
2023-02-18T22:07:42.481Z,18.70
2023-02-18T22:10:08.912Z,18.71
2023-02-18T22:12:35.229Z,18.70
2023-02-18T22:15:01.527Z,18.69
2023-02-18T22:17:27.818Z,18.62
2023-02-18T22:19:54.315Z,18.51
2023-02-18T22:22:20.756Z,18.36
2023-02-18T22:24:47.878Z,18.20
2023-02-18T22:27:15.960Z,18.06
2023-02-18T22:29:45.943Z,18.07
2023-02-18T22:32:12.633Z,18.12
2023-02-18T22:34:39.058Z,18.18
2023-02-18T22:37:05.459Z,18.22
2023-02-18T22:42:16.218Z,18.31
2023-02-18T22:44:43.244Z,18.34
2023-02-18T22:47:09.794Z,18.36
2023-02-18T22:49:36.351Z,18.37
2023-02-18T22:52:02.657Z,18.39
2023-02-18T22:54:28.988Z,18.39
2023-02-18T22:56:56.442Z,18.40
2023-02-18T22:59:22.741Z,18.40
2023-02-18T23:01:49.429Z,18.40
2023-02-18T23:04:16.034Z,18.41
2023-02-18T23:06:42.418Z,18.41
2023-02-18T23:09:09.328Z,18.42
2023-02-18T23:11:36.555Z,18.41
2023-02-18T23:14:03.742Z,18.41
2023-02-18T23:16:30.088Z,18.41
2023-02-18T23:18:57.348Z,18.41
2023-02-18T23:21:24.083Z,18.41
2023-02-18T23:23:50.408Z,18.41
2023-02-18T23:26:16.703Z,18.41
2023-02-18T23:28:46.751Z,18.42
2023-02-18T23:31:14.436Z,18.43
2023-02-18T23:33:44.300Z,18.43
2023-02-18T23:36:14.513Z,18.42
2023-02-18T23:38:47.503Z,18.42
2023-02-18T23:41:18.260Z,18.41
2023-02-18T23:43:47.561Z,18.41
2023-02-18T23:46:17.993Z,18.40
2023-02-18T23:48:45.960Z,18.40
2023-02-18T23:51:20.590Z,18.40
2023-02-18T23:53:47.229Z,18.39
2023-02-18T23:56:14.054Z,18.35
2023-02-18T23:58:41.130Z,18.30
